createdAt,value
2018-01-06T00:00:53.466Z,1001.47
2018-01-06T00:02:15.197Z,1001.48
2018-01-06T00:03:37.046Z,1001.47
2018-01-06T00:04:58.646Z,1001.55
2018-01-06T00:06:20.536Z,1001.54
2018-01-06T00:07:41.837Z,1001.59
2018-01-06T00:09:03.750Z,1001.6
2018-01-06T00:10:25.484Z,1001.59
2018-01-06T00:11:47.661Z,1001.6
2018-01-06T00:13:09.618Z,1001.63
2018-01-06T00:14:31.896Z,1001.59
2018-01-06T00:15:54.025Z,1001.62
2018-01-06T00:17:15.638Z,1001.6
2018-01-06T00:18:36.728Z,1001.53
2018-01-06T00:19:58.910Z,1001.58
2018-01-06T00:21:20.796Z,1001.59
2018-01-06T00:22:42.179Z,1001.59
2018-01-06T00:24:04.038Z,1001.58
2018-01-06T00:25:25.647Z,1001.56
2018-01-06T00:26:47.346Z,1001.57
2018-01-06T00:28:09.204Z,1001.58
2018-01-06T00:29:30.996Z,1001.62
2018-01-06T00:30:52.596Z,1001.61
2018-01-06T00:32:14.271Z,1001.68
2018-01-06T00:33:36.139Z,1001.65
2018-01-06T00:34:57.476Z,1001.65
2018-01-06T00:36:18.887Z,1001.66
2018-01-06T00:37:40.780Z,1001.68
2018-01-06T00:39:01.875Z,1001.71
2018-01-06T00:40:23.507Z,1001.7
2018-01-06T00:41:45.733Z,1001.76
2018-01-06T00:43:07.400Z,1001.78
2018-01-06T00:44:28.759Z,1001.76
2018-01-06T00:45:50.350Z,1001.82
2018-01-06T00:47:12.108Z,1001.8
2018-01-06T00:48:33.985Z,1001.89
2018-01-06T00:49:55.359Z,1001.85
2018-01-06T00:51:17.259Z,1001.88
2018-01-06T00:52:38.616Z,1001.87
2018-01-06T00:54:00.760Z,1001.85
2018-01-06T00:55:22.625Z,1001.86
2018-01-06T00:56:44.020Z,1001.89
2018-01-06T00:58:05.706Z,1001.86
2018-01-06T00:59:27.602Z,1001.84
2018-01-06T01:00:49.456Z,1001.85
2018-01-06T01:02:11.085Z,1001.88
2018-01-06T01:03:33.231Z,1001.86
2018-01-06T01:04:55.343Z,1001.86
2018-01-06T01:06:16.825Z,1001.93
2018-01-06T01:07:38.434Z,1001.93
2018-01-06T01:08:59.775Z,1001.97
2018-01-06T01:10:21.403Z,1002.02
2018-01-06T01:11:43.279Z,1002.09
2018-01-06T01:13:05.409Z,1002.03
2018-01-06T01:14:27.067Z,1002.09
2018-01-06T01:15:49.247Z,1002.11
2018-01-06T01:17:11.147Z,1002.16
2018-01-06T01:18:33.016Z,1002.16
2018-01-06T01:19:54.100Z,1002.11
2018-01-06T01:21:16.055Z,1002.12
2018-01-06T01:22:37.413Z,1002.13
2018-01-06T01:23:59.451Z,1002.16
2018-01-06T01:25:20.936Z,1002.14
2018-01-06T01:26:42.549Z,1002.14
2018-01-06T01:28:04.812Z,1002.16
2018-01-06T01:29:27.078Z,1002.18
2018-01-06T01:30:48.779Z,1002.17
2018-01-06T01:32:10.380Z,1002.18
2018-01-06T01:33:32.257Z,1002.23
2018-01-06T01:34:54.216Z,1002.28
2018-01-06T01:36:15.833Z,1002.3
2018-01-06T01:37:37.966Z,1002.32
2018-01-06T01:38:59.041Z,1002.32
2018-01-06T01:40:20.629Z,1002.3
2018-01-06T01:41:42.901Z,1002.3
2018-01-06T01:43:04.900Z,1002.36
2018-01-06T01:44:27.068Z,1002.37
2018-01-06T01:45:48.691Z,1002.38
2018-01-06T01:47:10.836Z,1002.42
2018-01-06T01:48:32.176Z,1002.47
2018-01-06T01:49:53.773Z,1002.53
2018-01-06T01:51:15.919Z,1002.51
2018-01-06T01:52:38.189Z,1002.45
2018-01-06T01:54:00.162Z,1002.49
2018-01-06T01:55:21.242Z,1002.52
2018-01-06T01:56:43.105Z,1002.54
2018-01-06T01:58:04.726Z,1002.53
2018-01-06T01:59:26.940Z,1002.52
2018-01-06T02:00:49.007Z,1002.54
2018-01-06T02:02:10.887Z,1002.55
2018-01-06T02:03:33.007Z,1002.55
2018-01-06T02:04:55.106Z,1002.57
2018-01-06T02:06:17.238Z,1002.59
2018-01-06T02:07:38.817Z,1002.61
2018-01-06T02:08:59.885Z,1002.58
2018-01-06T02:10:21.632Z,1002.58
2018-01-06T02:11:42.759Z,1002.61
2018-01-06T02:13:04.599Z,1002.56
2018-01-06T02:14:26.736Z,1002.53
2018-01-06T02:15:48.896Z,1002.57
2018-01-06T02:17:10.542Z,1002.6
2018-01-06T02:18:31.875Z,1002.66
2018-01-06T02:19:53.786Z,1002.69
2018-01-06T02:21:15.393Z,1002.71
2018-01-06T02:22:37.254Z,1002.75
2018-01-06T02:23:58.918Z,1002.69
2018-01-06T02:25:20.545Z,1002.73
2018-01-06T02:26:42.408Z,1002.76
2018-01-06T02:28:04.585Z,1002.75
2018-01-06T02:29:26.859Z,1002.74
2018-01-06T02:30:48.739Z,1002.73
2018-01-06T02:32:11.221Z,1002.74
2018-01-06T02:33:33.353Z,1002.74
2018-01-06T02:34:54.655Z,1002.78
2018-01-06T02:36:16.518Z,1002.78
2018-01-06T02:37:37.879Z,1002.74
2018-01-06T02:38:59.621Z,1002.74
2018-01-06T02:40:21.509Z,1002.73
2018-01-06T02:41:43.357Z,1002.74
2018-01-06T02:43:04.487Z,1002.75
2018-01-06T02:44:26.117Z,1002.75
2018-01-06T02:45:47.727Z,1002.71
2018-01-06T02:47:09.078Z,1002.77
2018-01-06T02:48:31.564Z,1002.78
2018-01-06T02:49:53.498Z,1002.74
2018-01-06T02:51:15.381Z,1002.8
2018-01-06T02:52:36.734Z,1002.84
2018-01-06T02:53:58.907Z,1002.83
2018-01-06T02:55:20.864Z,1002.8
2018-01-06T02:56:42.837Z,1002.77
2018-01-06T02:58:04.770Z,1002.77
2018-01-06T02:59:26.889Z,1002.74
2018-01-06T03:00:48.258Z,1002.76
2018-01-06T03:02:10.251Z,1002.84
2018-01-06T03:03:32.398Z,1002.77
2018-01-06T03:06:45.688Z,1002.76
2018-01-06T03:08:07.019Z,1002.77
2018-01-06T03:09:28.972Z,1002.74
2018-01-06T03:10:50.850Z,1002.76
2018-01-06T03:12:12.768Z,1002.73
2018-01-06T03:13:34.517Z,1002.71
2018-01-06T03:14:56.431Z,1002.73
2018-01-06T03:16:17.756Z,1002.73
2018-01-06T03:17:39.615Z,1002.79
2018-01-06T03:19:01.227Z,1002.75
2018-01-06T03:20:22.805Z,1002.75
2018-01-06T03:21:44.735Z,1002.77
2018-01-06T03:23:06.377Z,1002.75
2018-01-06T03:24:27.737Z,1002.78
2018-01-06T03:25:49.347Z,1002.74
2018-01-06T03:27:11.190Z,1002.73
2018-01-06T03:28:33.045Z,1002.71
2018-01-06T03:29:54.915Z,1002.77
2018-01-06T03:31:16.358Z,1002.81
2018-01-06T03:32:38.307Z,1002.84
2018-01-06T03:34:00.309Z,1002.84
2018-01-06T03:35:22.189Z,1002.86
2018-01-06T03:36:43.375Z,1002.88
2018-01-06T03:38:04.492Z,1002.85
2018-01-06T03:39:26.353Z,1002.94
2018-01-06T03:40:47.693Z,1002.99
2018-01-06T03:42:09.543Z,1003.03
2018-01-06T03:43:31.524Z,1003.06
2018-01-06T03:44:53.531Z,1003.06
2018-01-06T03:46:14.861Z,1003.06
2018-01-06T03:47:36.966Z,1003.1
2018-01-06T03:48:58.847Z,1003.12
2018-01-06T03:50:20.711Z,1003.12
2018-01-06T03:51:42.557Z,1003.14
2018-01-06T03:53:04.431Z,1003.23
2018-01-06T03:54:26.176Z,1003.29
2018-01-06T03:55:47.792Z,1003.24
2018-01-06T03:57:09.424Z,1003.3
2018-01-06T03:58:30.915Z,1003.27
2018-01-06T03:59:52.595Z,1003.22
2018-01-06T04:01:14.077Z,1003.23
2018-01-06T04:02:35.954Z,1003.25
2018-01-06T04:03:57.029Z,1003.24
2018-01-06T04:05:18.984Z,1003.26
2018-01-06T04:06:40.387Z,1003.36
2018-01-06T04:08:01.739Z,1003.42
2018-01-06T04:09:23.614Z,1003.43
2018-01-06T04:10:45.464Z,1003.44
2018-01-06T04:12:07.352Z,1003.47
2018-01-06T04:13:28.936Z,1003.52
2018-01-06T04:14:50.885Z,1003.54
2018-01-06T04:16:12.508Z,1003.57
2018-01-06T04:17:33.954Z,1003.57
2018-01-06T04:18:55.566Z,1003.57
2018-01-06T04:20:17.477Z,1003.64
2018-01-06T04:21:39.069Z,1003.69
2018-01-06T04:23:00.703Z,1003.61
2018-01-06T04:24:22.064Z,1003.65
2018-01-06T04:25:43.170Z,1003.62
2018-01-06T04:27:04.514Z,1003.58
2018-01-06T04:28:26.476Z,1003.62
2018-01-06T04:29:48.344Z,1003.64
2018-01-06T04:31:09.154Z,1003.69
2018-01-06T04:32:31.325Z,1003.72
2018-01-06T04:33:53.468Z,1003.66
2018-01-06T04:35:15.324Z,1003.7
2018-01-06T04:36:37.014Z,1003.73
2018-01-06T04:37:58.346Z,1003.71
2018-01-06T04:39:19.418Z,1003.71
2018-01-06T04:40:41.282Z,1003.69
2018-01-06T04:42:03.578Z,1003.72
2018-01-06T04:43:24.914Z,1003.72
2018-01-06T04:44:46.004Z,1003.72
2018-01-06T04:46:07.388Z,1003.74
2018-01-06T04:47:28.987Z,1003.74
2018-01-06T04:48:51.124Z,1003.81
2018-01-06T04:50:12.455Z,1003.76
2018-01-06T04:51:34.164Z,1003.81
2018-01-06T04:52:56.035Z,1003.79
2018-01-06T04:54:17.882Z,1003.82
2018-01-06T04:55:39.082Z,1003.83
2018-01-06T04:57:00.543Z,1003.82
2018-01-06T04:58:22.654Z,1003.82
2018-01-06T04:59:44.513Z,1003.87
2018-01-06T05:01:05.860Z,1003.92
2018-01-06T05:02:27.759Z,1003.91
2018-01-06T05:03:49.107Z,1003.88
2018-01-06T05:05:11.224Z,1003.86
2018-01-06T05:06:32.803Z,1003.83
2018-01-06T05:07:54.203Z,1003.75
2018-01-06T05:09:16.416Z,1003.74
2018-01-06T05:10:38.264Z,1003.76
2018-01-06T05:12:00.392Z,1003.84
2018-01-06T05:13:22.646Z,1003.86
2018-01-06T05:14:44.775Z,1003.86
2018-01-06T05:16:06.999Z,1003.88
2018-01-06T05:17:28.586Z,1003.94
2018-01-06T05:18:50.194Z,1003.94
2018-01-06T05:20:12.297Z,1003.9
2018-01-06T05:21:33.956Z,1003.87
2018-01-06T05:22:55.045Z,1003.86
2018-01-06T05:24:17.001Z,1003.92
2018-01-06T05:25:38.677Z,1003.98
2018-01-06T05:27:00.807Z,1004.01
2018-01-06T05:28:22.394Z,1004.07
2018-01-06T05:29:43.617Z,1004.08
2018-01-06T05:31:05.475Z,1004.1
2018-01-06T05:32:26.802Z,1004.19
2018-01-06T05:33:48.564Z,1004.17
2018-01-06T05:35:10.420Z,1004.1
2018-01-06T05:36:32.414Z,1004.12
2018-01-06T05:37:54.015Z,1004.17
2018-01-06T05:39:16.286Z,1004.2
2018-01-06T05:40:38.014Z,1004.21
2018-01-06T05:41:59.350Z,1004.25
2018-01-06T05:43:21.211Z,1004.23
2018-01-06T05:44:42.804Z,1004.23
2018-01-06T05:46:04.704Z,1004.23
2018-01-06T05:47:26.550Z,1004.3
2018-01-06T05:48:48.415Z,1004.34
2018-01-06T05:50:10.215Z,1004.37
2018-01-06T05:51:31.864Z,1004.41
2018-01-06T05:52:54.012Z,1004.4
2018-01-06T05:54:15.870Z,1004.44
2018-01-06T05:55:38.090Z,1004.45
2018-01-06T05:56:59.829Z,1004.45
2018-01-06T05:58:21.158Z,1004.48
2018-01-06T05:59:42.542Z,1004.51
2018-01-06T06:01:04.384Z,1004.51
2018-01-06T06:02:25.766Z,1004.48
2018-01-06T06:03:47.368Z,1004.55
2018-01-06T06:05:09.219Z,1004.54
2018-01-06T06:06:30.633Z,1004.52
2018-01-06T06:07:52.746Z,1004.58
2018-01-06T06:09:14.166Z,1004.54
2018-01-06T06:10:36.434Z,1004.57
2018-01-06T06:11:58.047Z,1004.54
2018-01-06T06:13:19.108Z,1004.49
2018-01-06T06:14:40.967Z,1004.53
2018-01-06T06:16:02.753Z,1004.51
2018-01-06T06:17:24.614Z,1004.53
2018-01-06T06:18:46.194Z,1004.56
2018-01-06T06:20:07.525Z,1004.61
2018-01-06T06:21:29.458Z,1004.56
2018-01-06T06:22:51.302Z,1004.59
2018-01-06T06:24:13.156Z,1004.56
2018-01-06T06:25:34.760Z,1004.57
2018-01-06T06:26:56.110Z,1004.61
2018-01-06T06:28:17.487Z,1004.67
2018-01-06T06:29:39.146Z,1004.69
2018-01-06T06:31:00.433Z,1004.74
2018-01-06T06:32:22.280Z,1004.77
2018-01-06T06:33:43.885Z,1004.82
2018-01-06T06:35:05.476Z,1004.87
2018-01-06T06:36:27.053Z,1004.89
2018-01-06T06:37:48.656Z,1004.89
2018-01-06T06:39:10.524Z,1004.92
2018-01-06T06:40:32.133Z,1004.96
2018-01-06T06:41:54.000Z,1004.95
2018-01-06T06:43:15.343Z,1004.93
2018-01-06T06:44:37.000Z,1004.99
2018-01-06T06:45:58.394Z,1004.97
2018-01-06T06:47:20.037Z,1004.99
2018-01-06T06:48:42.183Z,1004.97
2018-01-06T06:50:03.532Z,1004.94
2018-01-06T06:51:25.207Z,1004.95
2018-01-06T06:52:46.534Z,1004.96
2018-01-06T06:54:08.679Z,1004.96
2018-01-06T06:55:30.552Z,1004.99
2018-01-06T06:56:52.415Z,1005.03
2018-01-06T06:58:14.000Z,1005.02
2018-01-06T06:59:36.034Z,1005.03
2018-01-06T07:00:57.912Z,1005.04
2018-01-06T07:02:19.715Z,1005.12
2018-01-06T07:03:41.386Z,1005.12
2018-01-06T07:05:02.978Z,1005.12
2018-01-06T07:06:24.337Z,1005.19
2018-01-06T07:07:46.209Z,1005.19
2018-01-06T07:09:08.130Z,1005.31
2018-01-06T07:10:29.545Z,1005.39
2018-01-06T07:11:51.143Z,1005.37
2018-01-06T07:13:12.735Z,1005.36
2018-01-06T07:14:33.813Z,1005.33
2018-01-06T07:15:55.432Z,1005.36
2018-01-06T07:17:17.614Z,1005.44
2018-01-06T07:18:39.214Z,1005.53
2018-01-06T07:20:01.374Z,1005.53
2018-01-06T07:21:23.302Z,1005.6
2018-01-06T07:22:45.145Z,1005.58
2018-01-06T07:24:06.244Z,1005.56
2018-01-06T07:25:27.592Z,1005.65
2018-01-06T07:26:49.825Z,1005.68
2018-01-06T07:28:11.434Z,1005.7
2018-01-06T07:29:33.049Z,1005.73
2018-01-06T07:30:54.984Z,1005.74
2018-01-06T07:32:16.605Z,1005.78
2018-01-06T07:33:38.486Z,1005.78
2018-01-06T07:35:00.614Z,1005.84
2018-01-06T07:36:22.245Z,1005.84
2018-01-06T07:37:43.851Z,1005.91
2018-01-06T07:39:04.937Z,1005.97
2018-01-06T07:40:26.892Z,1005.99
2018-01-06T07:41:48.245Z,1006.03
2018-01-06T07:43:10.097Z,1006
2018-01-06T07:44:31.954Z,1006.02
2018-01-06T07:45:53.527Z,1006.04
2018-01-06T07:47:15.508Z,1006.09
2018-01-06T07:48:36.895Z,1006.11
2018-01-06T07:49:59.016Z,1006.13
2018-01-06T07:51:21.213Z,1006.12
2018-01-06T07:52:42.594Z,1006.14
2018-01-06T07:54:03.930Z,1006.13
2018-01-06T07:55:26.106Z,1006.15
2018-01-06T07:56:47.714Z,1006.19
2018-01-06T07:58:09.306Z,1006.2
2018-01-06T07:59:30.921Z,1006.21
2018-01-06T08:00:52.820Z,1006.21
2018-01-06T08:02:14.946Z,1006.28
2018-01-06T08:03:36.706Z,1006.27
2018-01-06T08:04:58.417Z,1006.31
2018-01-06T08:06:20.517Z,1006.32
2018-01-06T08:07:42.684Z,1006.32
2018-01-06T08:09:04.351Z,1006.34
2018-01-06T08:10:26.216Z,1006.36
2018-01-06T08:11:48.475Z,1006.39
2018-01-06T08:13:09.801Z,1006.44
2018-01-06T08:14:31.433Z,1006.51
2018-01-06T08:15:53.287Z,1006.55
2018-01-06T08:17:14.598Z,1006.59
2018-01-06T08:18:36.050Z,1006.56
2018-01-06T08:19:58.024Z,1006.58
2018-01-06T08:21:19.397Z,1006.59
2018-01-06T08:22:41.283Z,1006.61
2018-01-06T08:24:02.637Z,1006.69
2018-01-06T08:25:24.506Z,1006.73
2018-01-06T08:26:46.414Z,1006.77
2018-01-06T08:28:08.002Z,1006.78
2018-01-06T08:29:30.134Z,1006.8
2018-01-06T08:30:51.488Z,1006.81
2018-01-06T08:32:13.659Z,1006.8
2018-01-06T08:33:34.994Z,1006.85
2018-01-06T08:34:57.236Z,1006.91
2018-01-06T08:36:19.268Z,1006.97
2018-01-06T08:37:41.175Z,1006.99
2018-01-06T08:39:03.085Z,1007.01
2018-01-06T08:40:24.153Z,1006.99
2018-01-06T08:41:46.033Z,1006.98
2018-01-06T08:43:07.635Z,1006.96
2018-01-06T08:44:29.071Z,1006.98
2018-01-06T08:45:50.955Z,1007
2018-01-06T08:47:12.629Z,1007.01
2018-01-06T08:48:34.913Z,1007.03
2018-01-06T08:49:57.051Z,1007.09
2018-01-06T08:51:19.235Z,1007.01
2018-01-06T08:52:41.235Z,1007.06
2018-01-06T08:54:03.204Z,1007.15
2018-01-06T08:55:25.264Z,1007.11
2018-01-06T08:56:46.907Z,1007.11
2018-01-06T08:58:08.244Z,1007.13
2018-01-06T08:59:29.916Z,1007.09
2018-01-06T09:00:51.567Z,1007.13
2018-01-06T09:02:13.717Z,1007.18
2018-01-06T09:03:35.317Z,1007.18
2018-01-06T09:04:57.172Z,1007.26
2018-01-06T09:06:19.226Z,1007.35
2018-01-06T09:07:41.198Z,1007.38
2018-01-06T09:09:02.917Z,1007.42
2018-01-06T09:10:24.922Z,1007.36
2018-01-06T09:11:47.218Z,1007.36
2018-01-06T09:13:08.543Z,1007.32
2018-01-06T09:14:30.327Z,1007.34
2018-01-06T09:15:52.186Z,1007.39
2018-01-06T09:17:14.323Z,1007.45
2018-01-06T09:18:36.186Z,1007.48
2018-01-06T09:19:58.316Z,1007.48
2018-01-06T09:21:20.206Z,1007.6
2018-01-06T09:22:42.335Z,1007.65
2018-01-06T09:24:04.494Z,1007.67
2018-01-06T09:25:26.472Z,1007.67
2018-01-06T09:26:48.486Z,1007.71
2018-01-06T09:28:10.492Z,1007.79
2018-01-06T09:29:32.093Z,1007.81
2018-01-06T09:30:53.429Z,1007.86
2018-01-06T09:32:15.014Z,1007.91
2018-01-06T09:33:36.894Z,1007.9
2018-01-06T09:34:58.505Z,1007.92
2018-01-06T09:36:20.673Z,1007.94
2018-01-06T09:37:42.535Z,1008.01
2018-01-06T09:39:04.695Z,1007.99
2018-01-06T09:40:26.619Z,1008.02
2018-01-06T09:41:48.248Z,1008.03
2018-01-06T09:43:10.228Z,1008.01
2018-01-06T09:44:31.874Z,1008.05
2018-01-06T09:45:53.851Z,1008.03
2018-01-06T09:47:15.673Z,1008.04
2018-01-06T09:48:37.804Z,1008.09
2018-01-06T09:49:59.427Z,1008.12
2018-01-06T09:51:21.285Z,1008.16
2018-01-06T09:52:42.891Z,1008.21
2018-01-06T09:54:04.476Z,1008.23
2018-01-06T09:55:26.084Z,1008.23
2018-01-06T09:56:47.710Z,1008.27
2018-01-06T09:58:09.339Z,1008.27
2018-01-06T09:59:30.720Z,1008.3
2018-01-06T10:00:52.056Z,1008.26
2018-01-06T10:02:13.669Z,1008.21
2018-01-06T10:03:35.664Z,1008.23
2018-01-06T10:04:58.000Z,1008.24
2018-01-06T10:06:19.865Z,1008.28
2018-01-06T10:07:41.485Z,1008.3
2018-01-06T10:09:03.456Z,1008.3
2018-01-06T10:10:25.551Z,1008.3
2018-01-06T10:11:47.457Z,1008.32
2018-01-06T10:13:09.351Z,1008.31
2018-01-06T10:14:31.038Z,1008.32
2018-01-06T10:15:52.657Z,1008.33
2018-01-06T10:17:14.266Z,1008.33
2018-01-06T10:18:36.119Z,1008.34
2018-01-06T10:19:57.492Z,1008.37
2018-01-06T10:21:19.416Z,1008.4
2018-01-06T10:22:40.815Z,1008.43
2018-01-06T10:24:02.744Z,1008.47
2018-01-06T10:25:24.358Z,1008.54
2018-01-06T10:26:46.397Z,1008.53
2018-01-06T10:28:08.546Z,1008.5
2018-01-06T10:29:30.163Z,1008.52
2018-01-06T10:30:52.284Z,1008.61
2018-01-06T10:32:14.144Z,1008.59
2018-01-06T10:33:35.777Z,1008.62
2018-01-06T10:34:57.650Z,1008.64
2018-01-06T10:36:19.536Z,1008.66
2018-01-06T10:37:41.736Z,1008.67
2018-01-06T10:39:03.978Z,1008.67
2018-01-06T10:40:25.925Z,1008.72
2018-01-06T10:41:47.669Z,1008.74
2018-01-06T10:43:09.557Z,1008.77
2018-01-06T10:44:31.297Z,1008.78
2018-01-06T10:45:53.484Z,1008.76
2018-01-06T10:47:15.763Z,1008.8
2018-01-06T10:48:37.764Z,1008.76
2018-01-06T10:49:58.995Z,1008.78
2018-01-06T10:51:20.616Z,1008.81
2018-01-06T10:52:42.284Z,1008.85
2018-01-06T10:54:03.901Z,1008.88
2018-01-06T10:55:25.795Z,1008.88
2018-01-06T10:56:47.457Z,1008.91
2018-01-06T10:58:09.055Z,1008.94
2018-01-06T10:59:30.423Z,1009.02
2018-01-06T11:00:52.509Z,1009
2018-01-06T11:02:14.155Z,1009
2018-01-06T11:03:36.293Z,1009
2018-01-06T11:04:58.048Z,1008.95
2018-01-06T11:06:19.685Z,1008.95
2018-01-06T11:07:41.057Z,1008.97
2018-01-06T11:09:03.241Z,1008.96
2018-01-06T11:10:24.855Z,1008.99
2018-01-06T11:11:46.886Z,1009.01
2018-01-06T11:13:08.881Z,1008.99
2018-01-06T11:14:30.773Z,1009.04
2018-01-06T11:15:52.847Z,1009.08
2018-01-06T11:17:14.979Z,1009.08
2018-01-06T11:18:36.581Z,1009.07
2018-01-06T11:19:58.763Z,1009.1
2018-01-06T11:21:20.432Z,1009.11
2018-01-06T11:22:42.726Z,1009.15
2018-01-06T11:24:04.097Z,1009.18
2018-01-06T11:25:25.977Z,1009.19
2018-01-06T11:26:48.110Z,1009.14
2018-01-06T11:28:10.293Z,1009.23
2018-01-06T11:29:32.450Z,1009.24
2018-01-06T11:30:54.322Z,1009.26
2018-01-06T11:32:16.182Z,1009.29
2018-01-06T11:33:38.695Z,1009.34
2018-01-06T11:35:00.627Z,1009.36
2018-01-06T11:36:22.642Z,1009.34
2018-01-06T11:37:44.654Z,1009.35
2018-01-06T11:39:06.784Z,1009.33
2018-01-06T11:40:28.685Z,1009.38
2018-01-06T11:41:50.845Z,1009.39
2018-01-06T11:43:12.737Z,1009.45
2018-01-06T11:44:34.332Z,1009.42
2018-01-06T11:45:55.954Z,1009.49
2018-01-06T11:47:17.816Z,1009.49
2018-01-06T11:48:39.904Z,1009.52
2018-01-06T11:50:02.001Z,1009.5
2018-01-06T11:51:23.922Z,1009.56
2018-01-06T11:52:46.155Z,1009.61
2018-01-06T11:54:08.302Z,1009.65
2018-01-06T11:55:30.415Z,1009.63
2018-01-06T11:56:52.639Z,1009.65
2018-01-06T11:58:14.246Z,1009.65
2018-01-06T11:59:36.136Z,1009.65
2018-01-06T12:00:57.823Z,1009.67
2018-01-06T12:02:20.015Z,1009.67
2018-01-06T12:03:41.675Z,1009.63
2018-01-06T12:05:03.559Z,1009.62
2018-01-06T12:06:25.733Z,1009.63
2018-01-06T12:07:47.476Z,1009.64
2018-01-06T12:09:09.235Z,1009.76
2018-01-06T12:10:30.928Z,1009.74
2018-01-06T12:11:53.152Z,1009.73
2018-01-06T12:13:15.032Z,1009.77
2018-01-06T12:14:37.224Z,1009.8
2018-01-06T12:15:58.852Z,1009.86
2018-01-06T12:17:20.462Z,1009.86
2018-01-06T12:18:42.362Z,1009.9
2018-01-06T12:20:04.246Z,1009.93
2018-01-06T12:21:26.374Z,1010.01
2018-01-06T12:22:47.723Z,1010.02
2018-01-06T12:24:09.924Z,1010.03
2018-01-06T12:25:32.103Z,1009.94
2018-01-06T12:26:54.240Z,1009.96
2018-01-06T12:28:16.377Z,1010
2018-01-06T12:29:38.286Z,1010.04
2018-01-06T12:31:00.165Z,1010.03
2018-01-06T12:32:22.299Z,1010.05
2018-01-06T12:33:44.231Z,1010.05
2018-01-06T12:35:06.376Z,1010.12
2018-01-06T12:36:28.419Z,1010.12
2018-01-06T12:37:50.378Z,1010.11
2018-01-06T12:39:11.977Z,1010.17
2018-01-06T12:47:18.342Z,1010.4
2018-01-06T12:48:40.501Z,1010.44
2018-01-06T12:50:02.533Z,1010.39
2018-01-06T12:51:25.443Z,1010.42
2018-01-06T12:52:47.055Z,1010.41
2018-01-06T12:54:09.319Z,1010.41
2018-01-06T12:55:30.947Z,1010.38
2018-01-06T12:56:52.645Z,1010.43
2018-01-06T12:58:14.562Z,1010.45
2018-01-06T12:59:36.441Z,1010.48
2018-01-06T13:00:58.068Z,1010.46
2018-01-06T13:02:20.040Z,1010.51
2018-01-06T13:03:41.943Z,1010.51
2018-01-06T13:05:04.225Z,1010.52
2018-01-06T13:06:26.427Z,1010.54
2018-01-06T13:07:48.588Z,1010.62
2018-01-06T13:09:10.446Z,1010.61
2018-01-06T13:10:31.860Z,1010.6
2018-01-06T13:11:54.020Z,1010.68
2018-01-06T13:13:16.185Z,1010.77
2018-01-06T13:14:37.921Z,1010.86
2018-01-06T13:16:00.093Z,1010.89
2018-01-06T13:17:22.005Z,1010.92
2018-01-06T13:18:44.164Z,1010.94
2018-01-06T13:20:05.778Z,1010.98
2018-01-06T13:21:27.894Z,1011.03
2018-01-06T13:22:49.904Z,1011.08
2018-01-06T13:24:12.205Z,1011.08
2018-01-06T13:25:34.084Z,1011.1
2018-01-06T13:26:55.944Z,1011.06
2018-01-06T13:28:17.999Z,1011.13
2018-01-06T13:29:40.227Z,1011.11
2018-01-06T13:31:02.386Z,1011.13
2018-01-06T13:32:24.537Z,1011.11
2018-01-06T13:33:46.167Z,1011.1
2018-01-06T13:35:08.335Z,1011.14
2018-01-06T13:36:30.239Z,1011.2
2018-01-06T13:37:52.396Z,1011.08
2018-01-06T13:39:14.541Z,1011.08
2018-01-06T13:40:36.648Z,1011.16
2018-01-06T13:41:59.072Z,1011.13
2018-01-06T13:43:21.229Z,1011.2
2018-01-06T13:44:43.389Z,1011.19
2018-01-06T13:46:05.643Z,1011.18
2018-01-06T13:47:27.530Z,1011.25
2018-01-06T13:48:49.672Z,1011.31
2018-01-06T13:50:11.579Z,1011.36
2018-01-06T13:51:33.812Z,1011.44
2018-01-06T13:52:55.747Z,1011.46
2018-01-06T13:54:18.084Z,1011.55
2018-01-06T13:55:40.243Z,1011.53
2018-01-06T13:57:02.433Z,1011.59
2018-01-06T13:58:24.686Z,1011.64
2018-01-06T13:59:46.847Z,1011.66
2018-01-06T14:01:09.128Z,1011.7
2018-01-06T14:02:31.258Z,1011.75
2018-01-06T14:03:53.457Z,1011.78
2018-01-06T14:05:15.347Z,1011.84
2018-01-06T14:06:37.555Z,1011.85
2018-01-06T14:07:59.433Z,1011.84
2018-01-06T14:09:21.658Z,1011.93
2018-01-06T14:10:43.794Z,1011.97
2018-01-06T14:12:05.678Z,1011.98
2018-01-06T14:13:28.093Z,1012.05
2018-01-06T14:14:50.327Z,1012.07
2018-01-06T14:16:12.049Z,1012.07
2018-01-06T14:17:34.006Z,1012.01
2018-01-06T14:18:55.907Z,1012.09
2018-01-06T14:20:18.684Z,1012.1
2018-01-06T14:21:40.613Z,1012.13
2018-01-06T14:23:02.307Z,1012.11
2018-01-06T14:24:24.412Z,1012.14
2018-01-06T14:25:46.606Z,1012.13
2018-01-06T14:27:08.288Z,1012.17
2018-01-06T14:28:30.187Z,1012.19
2018-01-06T14:29:52.073Z,1012.18
2018-01-06T14:31:13.977Z,1012.26
2018-01-06T14:32:36.176Z,1012.31
2018-01-06T14:33:58.081Z,1012.39
2018-01-06T14:35:20.135Z,1012.45
2018-01-06T14:36:42.253Z,1012.48
2018-01-06T14:38:04.395Z,1012.53
2018-01-06T14:39:26.132Z,1012.57
2018-01-06T14:40:48.180Z,1012.59
2018-01-06T14:42:10.436Z,1012.64
2018-01-06T14:43:32.317Z,1012.64
2018-01-06T14:44:54.340Z,1012.69
2018-01-06T14:46:16.013Z,1012.68
2018-01-06T14:47:38.069Z,1012.72
2018-01-06T14:48:59.955Z,1012.66
2018-01-06T14:50:21.907Z,1012.7
2018-01-06T14:51:43.957Z,1012.7
2018-01-06T14:53:06.148Z,1012.68
2018-01-06T14:54:28.293Z,1012.76
2018-01-06T14:55:50.433Z,1012.76
2018-01-06T14:57:12.777Z,1012.7
2018-01-06T14:58:34.793Z,1012.82
2018-01-06T14:59:56.724Z,1012.77
2018-01-06T15:01:18.607Z,1012.8
2018-01-06T15:02:40.292Z,1012.79
2018-01-06T15:04:02.558Z,1012.78
2018-01-06T15:05:24.677Z,1012.8
2018-01-06T15:06:46.323Z,1012.84
2018-01-06T15:08:08.508Z,1012.82
2018-01-06T15:09:30.765Z,1012.85
2018-01-06T15:10:52.881Z,1012.88
2018-01-06T15:12:14.845Z,1012.89
2018-01-06T15:13:36.282Z,1012.92
2018-01-06T15:14:58.454Z,1012.9
2018-01-06T15:16:20.784Z,1012.89
2018-01-06T15:17:42.653Z,1012.88
2018-01-06T15:19:04.535Z,1012.95
2018-01-06T15:20:26.381Z,1012.98
2018-01-06T15:21:48.325Z,1012.98
2018-01-06T15:23:09.962Z,1013.01
2018-01-06T15:24:31.886Z,1013.13
2018-01-06T15:25:54.078Z,1013.06
2018-01-06T15:27:16.212Z,1013.11
2018-01-06T15:28:38.361Z,1013.12
2018-01-06T15:30:00.557Z,1013.16
2018-01-06T15:31:22.165Z,1013.14
2018-01-06T15:32:44.344Z,1013.22
2018-01-06T15:34:06.487Z,1013.24
2018-01-06T15:35:28.694Z,1013.26
2018-01-06T15:36:50.948Z,1013.28
2018-01-06T15:38:12.892Z,1013.41
2018-01-06T15:39:34.947Z,1013.45
2018-01-06T15:40:57.224Z,1013.51
2018-01-06T15:42:19.369Z,1013.62
2018-01-06T15:43:41.279Z,1013.6
2018-01-06T15:45:03.432Z,1013.69
2018-01-06T15:46:25.208Z,1013.74
2018-01-06T15:47:47.375Z,1013.72
2018-01-06T15:49:09.272Z,1013.7
2018-01-06T15:50:30.882Z,1013.77
2018-01-06T15:51:52.902Z,1013.71
2018-01-06T15:53:16.686Z,1013.75
2018-01-06T15:54:38.588Z,1013.78
2018-01-06T15:56:00.957Z,1013.82
2018-01-06T15:57:23.122Z,1013.9
2018-01-06T15:58:45.256Z,1013.93
2018-01-06T16:00:07.432Z,1013.92
2018-01-06T16:01:29.591Z,1013.96
2018-01-06T16:02:51.955Z,1013.93
2018-01-06T16:04:14.086Z,1014.01
2018-01-06T16:05:36.295Z,1014.02
2018-01-06T16:06:58.203Z,1014.09
2018-01-06T16:08:20.326Z,1014.07
2018-01-06T16:09:42.551Z,1014.09
2018-01-06T16:11:04.839Z,1014.04
2018-01-06T16:12:26.215Z,1014.09
2018-01-06T16:13:48.176Z,1014.05
2018-01-06T16:15:10.104Z,1014.13
2018-01-06T16:16:31.465Z,1014.1
2018-01-06T16:17:53.184Z,1014.13
2018-01-06T16:19:15.140Z,1014.18
2018-01-06T16:20:37.385Z,1014.17
2018-01-06T16:21:59.295Z,1014.24
2018-01-06T16:23:21.259Z,1014.27
2018-01-06T16:24:43.321Z,1014.29
2018-01-06T16:26:05.225Z,1014.26
2018-01-06T16:27:27.236Z,1014.3
2018-01-06T16:28:49.377Z,1014.3
2018-01-06T16:30:11.546Z,1014.35
2018-01-06T16:31:33.930Z,1014.31
2018-01-06T16:32:56.068Z,1014.29
2018-01-06T16:34:17.942Z,1014.32
2018-01-06T16:35:39.874Z,1014.38
2018-01-06T16:37:02.028Z,1014.48
2018-01-06T16:38:24.165Z,1014.44
2018-01-06T16:39:46.650Z,1014.44
2018-01-06T16:41:08.580Z,1014.46
2018-01-06T16:42:30.305Z,1014.51